Terminal Aerodrome Forecast
Issued by NWS Buffalo, NY

Home | Current Version | Previous Version | Text Only | Print | Product List | Glossary On
Versions: 1 2 3 4 5 6 7 8 9 10 11 12 13 14 15 16 17 18 19 20 21 22 23 24 25
823
FTUS41 KBUF 301120
TAFROC
TAF
KROC 301120Z 3012/3112 08006KT P6SM OVC100
     FM301500 08007KT P6SM VCSH OVC070
     FM301700 07007KT P6SM BKN070
     FM310800 09005KT 6SM -SHRA OVC050=

USA.gov is the U.S. government's official web portal to all federal, state and local government web resources and services.